Time,TemperatureF,DewpointF,PressureIn,WindDirection,WindDirectionDegrees,WindSpeedMPH,WindSpeedGustMPH,Humidity,HourlyPrecipIn,Conditions,Clouds,dailyrainin,SoftwareType,DateUTC
2013-03-24 00:00:00,36.8,36.8,29.95,WNW,303,4.0,4.0,100,0.00,,CLR,0.00,VWS V14.01,2013-03-24 04:00:00,
2013-03-24 00:05:00,36.8,36.8,29.95,WNW,299,7.0,7.0,100,0.00,,CLR,0.00,VWS V14.01,2013-03-24 04:05:00,
2013-03-24 00:10:00,36.7,36.7,29.95,NW,323,6.0,6.0,100,0.00,,CLR,0.00,VWS V14.01,2013-03-24 04:10:00,
2013-03-24 00:15:00,37.0,37.0,29.95,NW,319,6.0,8.0,100,0.00,,CLR,0.00,VWS V14.01,2013-03-24 04:15:00,
2013-03-24 00:20:00,36.7,36.7,29.95,NNW,335,7.0,8.0,100,0.00,,CLR,0.00,VWS V14.01,2013-03-24 04:20:00,
2013-03-24 00:25:00,36.3,36.3,29.95,NNW,328,8.0,8.0,100,0.00,,CLR,0.00,VWS V14.01,2013-03-24 04:25:00,
2013-03-24 00:30:00,36.3,36.3,29.95,NNW,329,9.0,9.0,100,0.00,,CLR,0.00,VWS V14.01,2013-03-24 04:30:00,
2013-03-24 00:35:00,36.5,36.5,29.95,NNW,327,6.0,7.0,100,0.00,,CLR,0.00,VWS V14.01,2013-03-24 04:35:00,
2013-03-24 00:40:00,36.5,36.5,29.95,NW,319,6.0,8.0,100,0.00,,CLR,0.00,VWS V14.01,2013-03-24 04:40:00,
2013-03-24 00:45:00,36.3,36.3,29.95,NNW,332,6.0,6.0,100,0.00,,CLR,0.00,VWS V14.01,2013-03-24 04:45:00,
2013-03-24 00:50:00,36.0,36.0,29.95,NW,325,6.0,6.0,100,0.00,,CLR,0.00,VWS V14.01,2013-03-24 04:50:00,
2013-03-24 00:55:00,35.9,35.9,29.95,NW,322,5.0,6.0,100,0.00,,CLR,0.00,VWS V14.01,2013-03-24 04:55:00,
2013-03-24 01:00:00,35.9,35.9,29.95,NW,324,6.0,6.0,100,0.00,,CLR,0.00,VWS V14.01,2013-03-24 05:00:00,
2013-03-24 01:05:00,35.8,35.8,29.95,NW,321,6.0,6.0,100,0.00,,CLR,0.00,VWS V14.01,2013-03-24 05:05:00,
2013-03-24 01:10:00,35.7,35.7,29.96,NW,318,6.0,6.0,100,0.00,,CLR,0.00,VWS V14.01,2013-03-24 05:10:00,
2013-03-24 01:15:00,35.7,35.7,29.95,NW,320,5.0,6.0,100,0.00,,CLR,0.00,VWS V14.01,2013-03-24 05:15:00,
2013-03-24 01:20:00,35.5,35.5,29.95,NW,322,6.0,7.0,100,0.00,,CLR,0.00,VWS V14.01,2013-03-24 05:20:00,
2013-03-24 01:25:00,35.3,35.3,29.95,NW,317,5.0,5.0,100,0.00,,CLR,0.00,VWS V14.01,2013-03-24 05:25:00,
2013-03-24 01:30:00,35.1,35.1,29.95,NW,316,5.0,6.0,100,0.00,,CLR,0.00,VWS V14.01,2013-03-24 05:30:00,
2013-03-24 01:35:00,35.0,35.0,29.95,NNW,327,6.0,6.0,100,0.00,,CLR,0.00,VWS V14.01,2013-03-24 05:35:00,
2013-03-24 01:40:00,34.8,34.8,29.95,NW,325,6.0,7.0,100,0.00,,CLR,0.00,VWS V14.01,2013-03-24 05:40:00,
2013-03-24 01:45:00,34.9,34.9,29.95,NW,323,7.0,7.0,100,0.00,,CLR,0.00,VWS V14.01,2013-03-24 05:45:00,
2013-03-24 01:50:00,35.0,35.0,29.95,NW,323,6.0,7.0,100,0.00,,CLR,0.00,VWS V14.01,2013-03-24 05:50:00,
2013-03-24 01:55:00,34.9,34.9,29.95,NW,316,5.0,6.0,100,0.00,,CLR,0.00,VWS V14.01,2013-03-24 05:55:00,
2013-03-24 02:00:00,34.8,34.8,29.95,WNW,298,5.0,6.0,100,0.00,,CLR,0.00,VWS V14.01,2013-03-24 06:00:00,
2013-03-24 02:05:00,34.7,34.7,29.95,NW,316,6.0,6.0,100,0.00,,CLR,0.00,VWS V14.01,2013-03-24 06:05:00,
2013-03-24 02:10:00,34.4,34.4,29.94,NW,311,5.0,6.0,100,0.00,,CLR,0.00,VWS V14.01,2013-03-24 06:10:00,
2013-03-24 02:15:00,34.2,34.2,29.94,NNW,332,6.0,7.0,100,0.00,,CLR,0.00,VWS V14.01,2013-03-24 06:15:00,
2013-03-24 02:20:00,33.7,33.7,29.94,NNW,342,8.0,8.0,100,0.00,,CLR,0.00,VWS V14.01,2013-03-24 06:20:00,
2013-03-24 02:25:00,33.4,33.4,29.94,North,349,7.0,8.0,100,0.00,,CLR,0.00,VWS V14.01,2013-03-24 06:25:00,
2013-03-24 02:30:00,33.3,33.3,29.94,NNW,339,6.0,6.0,100,0.00,,CLR,0.00,VWS V14.01,2013-03-24 06:30:00,
2013-03-24 02:35:00,33.4,33.4,29.95,NNW,335,5.0,5.0,100,0.00,,CLR,0.00,VWS V14.01,2013-03-24 06:35:00,
2013-03-24 02:40:00,33.5,33.5,29.95,NNW,334,4.0,5.0,100,0.00,,CLR,0.00,VWS V14.01,2013-03-24 06:40:00,
2013-03-24 02:45:00,33.5,33.5,29.95,NW,325,5.0,6.0,100,0.00,,CLR,0.00,VWS V14.01,2013-03-24 06:45:00,
2013-03-24 02:50:00,33.6,33.6,29.95,NNW,342,6.0,6.0,100,0.00,,CLR,0.00,VWS V14.01,2013-03-24 06:50:00,
2013-03-24 02:55:00,33.4,33.4,29.94,NNW,340,5.0,6.0,100,0.00,,CLR,0.00,VWS V14.01,2013-03-24 06:55:00,
2013-03-24 03:00:00,33.2,33.2,29.95,NNW,330,5.0,6.0,100,0.00,,CLR,0.00,VWS V14.01,2013-03-24 07:00:00,
2013-03-24 03:05:00,33.3,33.3,29.95,NNW,335,6.0,7.0,100,0.00,,CLR,0.00,VWS V14.01,2013-03-24 07:05:00,
2013-03-24 03:10:00,33.1,33.1,29.94,NNW,334,6.0,7.0,100,0.00,,CLR,0.00,VWS V14.01,2013-03-24 07:10:00,
2013-03-24 03:15:00,32.9,32.9,29.94,NNW,340,6.0,6.0,100,0.00,,CLR,0.00,VWS V14.01,2013-03-24 07:15:00,
2013-03-24 03:20:00,32.8,32.8,29.93,NNW,346,7.0,7.0,100,0.00,,CLR,0.00,VWS V14.01,2013-03-24 07:20:00,
2013-03-24 03:25:00,32.8,32.8,29.93,North,355,7.0,7.0,100,0.00,,CLR,0.00,VWS V14.01,2013-03-24 07:25:00,
2013-03-24 03:30:00,32.8,32.8,29.93,North,360,6.0,6.0,100,0.00,,CLR,0.00,VWS V14.01,2013-03-24 07:30:00,
2013-03-24 03:35:00,33.0,33.0,29.94,North,355,5.0,5.0,100,0.00,,CLR,0.00,VWS V14.01,2013-03-24 07:35:00,
2013-03-24 03:40:00,33.1,33.1,29.94,North,360,6.0,6.0,100,0.00,,CLR,0.00,VWS V14.01,2013-03-24 07:40:00,
2013-03-24 03:45:00,33.0,33.0,29.93,North,351,6.0,7.0,100,0.00,,CLR,0.00,VWS V14.01,2013-03-24 07:45:00,
2013-03-24 03:50:00,32.8,32.8,29.93,North,355,6.0,7.0,100,0.00,,CLR,0.00,VWS V14.01,2013-03-24 07:50:00,
2013-03-24 03:55:00,32.8,32.8,29.93,North,360,6.0,6.0,100,0.00,,CLR,0.00,VWS V14.01,2013-03-24 07:55:00,
2013-03-24 04:00:00,32.8,32.8,29.93,North,5,8.0,8.0,100,0.00,,CLR,0.00,VWS V14.01,2013-03-24 08:00:00,
2013-03-24 04:05:00,33.0,33.0,29.93,North,360,6.0,6.0,100,0.00,,CLR,0.00,VWS V14.01,2013-03-24 08:05:00,
2013-03-24 04:10:00,33.1,33.1,29.93,NNW,348,6.0,6.0,100,0.00,,CLR,0.00,VWS V14.01,2013-03-24 08:10:00,
2013-03-24 04:15:00,33.0,33.0,29.94,North,355,5.0,5.0,100,0.00,,CLR,0.00,VWS V14.01,2013-03-24 08:15:00,
2013-03-24 04:20:00,33.0,33.0,29.95,North,355,4.0,4.0,100,0.00,,CLR,0.00,VWS V14.01,2013-03-24 08:20:00,
2013-03-24 04:25:00,33.1,33.1,29.95,NNW,331,4.0,5.0,100,0.00,,CLR,0.00,VWS V14.01,2013-03-24 08:25:00,
2013-03-24 04:30:00,33.1,33.1,29.95,NNW,331,4.0,5.0,100,0.00,,CLR,0.00,VWS V14.01,2013-03-24 08:30:00,
2013-03-24 04:35:00,33.0,33.0,29.96,NNW,335,4.0,4.0,100,0.00,,CLR,0.00,VWS V14.01,2013-03-24 08:35:00,
2013-03-24 04:40:00,33.0,33.0,29.96,NNW,334,4.0,4.0,100,0.00,,CLR,0.00,VWS V14.01,2013-03-24 08:40:00,
2013-03-24 04:45:00,33.1,33.1,29.96,NNW,338,5.0,5.0,100,0.00,,CLR,0.00,VWS V14.01,2013-03-24 08:45:00,
2013-03-24 04:50:00,33.0,33.0,29.96,NNW,328,5.0,5.0,100,0.00,,CLR,0.00,VWS V14.01,2013-03-24 08:50:00,
2013-03-24 04:55:00,33.0,33.0,29.96,NW,325,5.0,5.0,100,0.00,,CLR,0.00,VWS V14.01,2013-03-24 08:55:00,
2013-03-24 05:00:00,33.1,33.1,29.97,NNW,333,5.0,5.0,100,0.00,,CLR,0.00,VWS V14.01,2013-03-24 09:00:00,
2013-03-24 05:05:00,32.9,32.9,29.97,NNW,340,5.0,5.0,100,0.00,,CLR,0.00,VWS V14.01,2013-03-24 09:05:00,
2013-03-24 05:10:00,32.6,32.6,29.97,NNW,340,5.0,6.0,100,0.00,,CLR,0.00,VWS V14.01,2013-03-24 09:10:00,
2013-03-24 05:15:00,32.4,32.4,29.96,NNW,336,6.0,6.0,100,0.00,,CLR,0.00,VWS V14.01,2013-03-24 09:15:00,
2013-03-24 05:20:00,32.2,32.2,29.96,NNW,342,6.0,6.0,100,0.00,,CLR,0.00,VWS V14.01,2013-03-24 09:20:00,
2013-03-24 05:25:00,31.8,31.8,29.96,NNW,346,5.0,5.0,100,0.00,,CLR,0.00,VWS V14.01,2013-03-24 09:25:00,
2013-03-24 05:30:00,31.7,31.7,29.96,NNW,340,5.0,5.0,100,0.00,,CLR,0.00,VWS V14.01,2013-03-24 09:30:00,
2013-03-24 05:35:00,31.7,31.7,29.96,NNW,338,5.0,6.0,100,0.00,,CLR,0.00,VWS V14.01,2013-03-24 09:35:00,
2013-03-24 05:40:00,31.8,31.8,29.96,NNW,336,5.0,5.0,100,0.00,,CLR,0.00,VWS V14.01,2013-03-24 09:40:00,
2013-03-24 05:45:00,31.7,31.7,29.96,NNW,336,5.0,5.0,100,0.00,,CLR,0.00,VWS V14.01,2013-03-24 09:45:00,
2013-03-24 05:50:00,31.7,31.7,29.96,NNW,339,6.0,6.0,100,0.00,,CLR,0.00,VWS V14.01,2013-03-24 09:50:00,
2013-03-24 05:55:00,31.4,31.4,29.96,NNW,346,5.0,5.0,100,0.00,,CLR,0.00,VWS V14.01,2013-03-24 09:55:00,
2013-03-24 06:00:00,31.3,31.3,29.96,NNW,338,4.0,5.0,100,0.00,,CLR,0.00,VWS V14.01,2013-03-24 10:00:00,
2013-03-24 06:05:00,31.3,31.3,29.96,NNW,342,4.0,5.0,100,0.00,,CLR,0.00,VWS V14.01,2013-03-24 10:05:00,
2013-03-24 06:10:00,31.2,31.2,29.96,North,355,5.0,5.0,100,0.00,,CLR,0.00,VWS V14.01,2013-03-24 10:10:00,
2013-03-24 06:15:00,31.1,31.1,29.95,North,355,6.0,6.0,100,0.00,,CLR,0.00,VWS V14.01,2013-03-24 10:15:00,
2013-03-24 06:20:00,31.3,31.3,29.95,North,351,4.0,5.0,100,0.00,,CLR,0.00,VWS V14.01,2013-03-24 10:20:00,
2013-03-24 06:25:00,31.5,31.5,29.95,North,355,3.0,4.0,100,0.00,,CLR,0.00,VWS V14.01,2013-03-24 10:25:00,
2013-03-24 06:30:00,31.7,31.7,29.95,North,351,3.0,4.0,100,0.00,,CLR,0.00,VWS V14.01,2013-03-24 10:30:00,
2013-03-24 06:35:00,31.6,31.6,29.94,North,355,4.0,4.0,100,0.00,,CLR,0.00,VWS V14.01,2013-03-24 10:35:00,
2013-03-24 06:40:00,31.6,31.6,29.94,North,355,4.0,4.0,100,0.00,,CLR,0.00,VWS V14.01,2013-03-24 10:40:00,
2013-03-24 06:45:00,31.7,31.7,29.95,NNW,343,4.0,4.0,100,0.00,,CLR,0.00,VWS V14.01,2013-03-24 10:45:00,
2013-03-24 06:50:00,31.6,31.6,29.95,NNW,340,4.0,5.0,100,0.00,,CLR,0.00,VWS V14.01,2013-03-24 10:50:00,
2013-03-24 06:55:00,31.6,31.6,29.95,NNW,336,4.0,5.0,100,0.00,,CLR,0.00,VWS V14.01,2013-03-24 10:55:00,
2013-03-24 07:00:00,31.5,31.5,29.95,NNW,347,5.0,5.0,100,0.00,,CLR,0.00,VWS V14.01,2013-03-24 11:00:00,
2013-03-24 07:05:00,31.3,31.3,29.95,North,355,5.0,5.0,100,0.00,,CLR,0.00,VWS V14.01,2013-03-24 11:05:00,
2013-03-24 07:10:00,31.3,31.3,29.95,North,349,5.0,5.0,100,0.00,,CLR,0.00,VWS V14.01,2013-03-24 11:10:00,
2013-03-24 07:15:00,31.5,31.5,29.95,North,355,5.0,5.0,100,0.00,,CLR,0.00,VWS V14.01,2013-03-24 11:15:00,
2013-03-24 07:20:00,31.7,31.7,29.95,North,360,4.0,4.0,100,0.00,,CLR,0.00,VWS V14.01,2013-03-24 11:20:00,
2013-03-24 07:25:00,31.9,31.9,29.95,North,350,5.0,5.0,100,0.00,,CLR,0.00,VWS V14.01,2013-03-24 11:25:00,
2013-03-24 07:30:00,32.0,32.0,29.95,North,355,5.0,5.0,100,0.00,,CLR,0.00,VWS V14.01,2013-03-24 11:30:00,
2013-03-24 07:35:00,32.0,32.0,29.95,North,350,4.0,4.0,100,0.00,,CLR,0.00,VWS V14.01,2013-03-24 11:35:00,
2013-03-24 07:40:00,32.2,32.2,29.95,North,349,4.0,5.0,100,0.00,,CLR,0.00,VWS V14.01,2013-03-24 11:40:00,
2013-03-24 07:45:00,32.5,32.5,29.95,NNW,348,5.0,6.0,100,0.00,,CLR,0.00,VWS V14.01,2013-03-24 11:45:00,
2013-03-24 07:50:00,33.0,33.0,29.95,NNW,341,5.0,5.0,100,0.00,,CLR,0.00,VWS V14.01,2013-03-24 11:50:00,
2013-03-24 07:55:00,33.5,33.5,29.95,NNW,340,5.0,6.0,100,0.00,,CLR,0.00,VWS V14.01,2013-03-24 11:55:00,
2013-03-24 08:00:00,34.1,34.1,29.95,NNW,348,3.0,5.0,100,0.00,,CLR,0.00,VWS V14.01,2013-03-24 12:00:00,
2013-03-24 08:05:00,34.6,34.6,29.96,NNW,346,4.0,5.0,100,0.00,,CLR,0.00,VWS V14.01,2013-03-24 12:05:00,
2013-03-24 08:10:00,35.0,35.0,29.95,North,349,6.0,7.0,100,0.00,,CLR,0.00,VWS V14.01,2013-03-24 12:10:00,
2013-03-24 08:15:00,35.3,35.3,29.95,NNW,348,5.0,6.0,100,0.00,,CLR,0.00,VWS V14.01,2013-03-24 12:15:00,
2013-03-24 08:20:00,35.7,35.7,29.95,NNW,348,6.0,6.0,100,0.00,,CLR,0.00,VWS V14.01,2013-03-24 12:20:00,
2013-03-24 08:25:00,36.1,36.1,29.95,North,350,5.0,7.0,100,0.00,,CLR,0.00,VWS V14.01,2013-03-24 12:25:00,
2013-03-24 08:30:00,36.5,36.5,29.95,North,360,7.0,8.0,100,0.00,,CLR,0.00,VWS V14.01,2013-03-24 12:30:00,
2013-03-24 08:35:00,36.7,36.7,29.95,North,5,6.0,7.0,100,0.00,,CLR,0.00,VWS V14.01,2013-03-24 12:35:00,
2013-03-24 08:40:00,36.8,36.8,29.95,NNW,348,6.0,7.0,100,0.00,,CLR,0.00,VWS V14.01,2013-03-24 12:40:00,
2013-03-24 08:45:00,36.8,36.8,29.96,NNW,346,7.0,7.0,100,0.00,,CLR,0.00,VWS V14.01,2013-03-24 12:45:00,
2013-03-24 08:50:00,37.0,37.0,29.96,North,350,5.0,5.0,100,0.00,,CLR,0.00,VWS V14.01,2013-03-24 12:50:00,
2013-03-24 08:55:00,37.3,37.3,29.96,North,5,3.0,6.0,100,0.00,,CLR,0.00,VWS V14.01,2013-03-24 12:55:00,
2013-03-24 09:00:00,37.4,37.4,29.95,NNW,346,5.0,6.0,100,0.00,,CLR,0.00,VWS V14.01,2013-03-24 13:00:00,
2013-03-24 09:05:00,37.7,37.7,29.95,North,355,5.0,6.0,100,0.00,,CLR,0.00,VWS V14.01,2013-03-24 13:05:00,
2013-03-24 09:10:00,37.9,37.9,29.95,North,5,5.0,6.0,100,0.00,,CLR,0.00,VWS V14.01,2013-03-24 13:10:00,
2013-03-24 09:15:00,38.0,38.0,29.94,North,5,6.0,6.0,100,0.00,,CLR,0.00,VWS V14.01,2013-03-24 13:15:00,
2013-03-24 09:20:00,38.2,38.2,29.94,North,355,5.0,6.0,100,0.00,,CLR,0.00,VWS V14.01,2013-03-24 13:20:00,
2013-03-24 09:25:00,38.3,38.3,29.93,NNE,16,5.0,5.0,100,0.00,,CLR,0.00,VWS V14.01,2013-03-24 13:25:00,
2013-03-24 09:30:00,38.6,38.6,29.93,NNE,13,5.0,6.0,100,0.00,,CLR,0.00,VWS V14.01,2013-03-24 13:30:00,
2013-03-24 09:35:00,38.9,38.9,29.93,NE,40,6.0,6.0,100,0.00,,CLR,0.00,VWS V14.01,2013-03-24 13:35:00,
2013-03-24 09:40:00,39.3,39.3,29.93,NNE,15,7.0,7.0,100,0.00,,CLR,0.00,VWS V14.01,2013-03-24 13:40:00,
2013-03-24 09:45:00,39.8,39.8,29.92,NNE,14,8.0,8.0,100,0.00,,CLR,0.00,VWS V14.01,2013-03-24 13:45:00,
2013-03-24 09:50:00,40.1,40.1,29.92,NNE,22,8.0,9.0,100,0.00,,CLR,0.00,VWS V14.01,2013-03-24 13:50:00,
2013-03-24 09:55:00,40.4,40.4,29.92,NNE,13,9.0,9.0,100,0.00,,CLR,0.00,VWS V14.01,2013-03-24 13:55:00,
2013-03-24 10:00:00,40.6,40.6,29.91,NNE,26,12.0,15.0,100,0.00,,CLR,0.00,VWS V14.01,2013-03-24 14:00:00,
2013-03-24 10:05:00,40.8,40.8,29.91,NNE,23,10.0,11.0,100,0.00,,CLR,0.00,VWS V14.01,2013-03-24 14:05:00,
2013-03-24 10:10:00,40.6,40.6,29.91,North,355,8.0,8.0,100,0.00,,CLR,0.00,VWS V14.01,2013-03-24 14:10:00,
2013-03-24 10:15:00,40.8,40.8,29.91,NNE,31,4.0,8.0,100,0.00,,CLR,0.00,VWS V14.01,2013-03-24 14:15:00,
2013-03-24 10:20:00,41.1,41.1,29.90,NNE,29,12.0,12.0,100,0.00,,CLR,0.00,VWS V14.01,2013-03-24 14:20:00,
2013-03-24 10:25:00,41.3,41.3,29.91,NNE,24,8.0,9.0,100,0.00,,CLR,0.00,VWS V14.01,2013-03-24 14:25:00,
2013-03-24 10:30:00,41.3,41.3,29.90,NNE,17,8.0,11.0,100,0.00,,CLR,0.00,VWS V14.01,2013-03-24 14:30:00,
2013-03-24 10:35:00,41.3,41.3,29.89,NE,38,9.0,11.0,100,0.00,,CLR,0.00,VWS V14.01,2013-03-24 14:35:00,
2013-03-24 10:40:00,41.5,41.5,29.90,NNE,30,9.0,9.0,100,0.00,,CLR,0.00,VWS V14.01,2013-03-24 14:40:00,
2013-03-24 10:45:00,41.4,41.4,29.89,NNE,32,10.0,11.0,100,0.00,,CLR,0.00,VWS V14.01,2013-03-24 14:45:00,
2013-03-24 10:50:00,41.5,41.5,29.89,NE,44,6.0,7.0,100,0.00,,CLR,0.00,VWS V14.01,2013-03-24 14:50:00,
2013-03-24 10:55:00,41.5,41.5,29.89,NE,40,8.0,8.0,100,0.00,,CLR,0.00,VWS V14.01,2013-03-24 14:55:00,
2013-03-24 11:00:00,41.4,41.4,29.89,NNE,26,5.0,7.0,100,0.00,,CLR,0.00,VWS V14.01,2013-03-24 15:00:00,
2013-03-24 11:05:00,41.5,41.5,29.89,NNE,27,4.0,4.0,100,0.00,,CLR,0.00,VWS V14.01,2013-03-24 15:05:00,
2013-03-24 11:10:00,41.9,41.9,29.89,NNE,13,6.0,8.0,100,0.00,,CLR,0.00,VWS V14.01,2013-03-24 15:10:00,
2013-03-24 11:15:00,42.1,42.1,29.88,ENE,59,5.0,5.0,100,0.00,,CLR,0.00,VWS V14.01,2013-03-24 15:15:00,
2013-03-24 11:20:00,42.3,42.3,29.89,NNW,342,5.0,7.0,100,0.00,,CLR,0.00,VWS V14.01,2013-03-24 15:20:00,
2013-03-24 11:25:00,42.5,42.5,29.88,NE,36,8.0,8.0,100,0.00,,CLR,0.00,VWS V14.01,2013-03-24 15:25:00,
2013-03-24 11:30:00,43.0,43.0,29.88,NNE,25,6.0,6.0,100,0.00,,CLR,0.00,VWS V14.01,2013-03-24 15:30:00,
2013-03-24 11:35:00,43.1,43.1,29.87,NE,50,7.0,7.0,100,0.00,,CLR,0.00,VWS V14.01,2013-03-24 15:35:00,
2013-03-24 11:40:00,43.4,43.4,29.88,ENE,57,2.0,2.0,100,0.00,,CLR,0.00,VWS V14.01,2013-03-24 15:40:00,
2013-03-24 11:45:00,43.8,43.8,29.87,NE,53,2.0,2.0,100,0.00,,CLR,0.00,VWS V14.01,2013-03-24 15:45:00,
2013-03-24 11:50:00,44.5,44.5,29.87,NE,42,0.0,1.0,100,0.00,,CLR,0.00,VWS V14.01,2013-03-24 15:50:00,
2013-03-24 11:55:00,44.9,44.9,29.88,NNW,329,2.0,2.0,100,0.00,,CLR,0.00,VWS V14.01,2013-03-24 15:55:00,
2013-03-24 12:00:00,44.5,44.5,29.87,WNW,284,3.0,3.0,100,0.00,,CLR,0.00,VWS V14.01,2013-03-24 16:00:00,
2013-03-24 12:05:00,44.8,44.8,29.87,SW,217,2.0,3.0,100,0.00,,CLR,0.00,VWS V14.01,2013-03-24 16:05:00,
2013-03-24 12:10:00,45.6,45.6,29.86,East,86,5.0,5.0,100,0.00,,CLR,0.00,VWS V14.01,2013-03-24 16:10:00,
2013-03-24 12:15:00,45.8,45.8,29.86,ENE,73,4.0,4.0,100,0.00,,CLR,0.00,VWS V14.01,2013-03-24 16:15:00,
2013-03-24 12:20:00,46.0,46.0,29.86,ENE,59,2.0,2.0,100,0.00,,CLR,0.00,VWS V14.01,2013-03-24 16:20:00,
2013-03-24 12:25:00,46.2,46.2,29.86,East,93,2.0,3.0,100,0.00,,CLR,0.00,VWS V14.01,2013-03-24 16:25:00,
2013-03-24 12:30:00,46.3,46.3,29.86,SE,138,2.0,6.0,100,0.00,,CLR,0.00,VWS V14.01,2013-03-24 16:30:00,
2013-03-24 12:35:00,46.1,46.1,29.85,ESE,121,8.0,8.0,100,0.00,,CLR,0.00,VWS V14.01,2013-03-24 16:35:00,
2013-03-24 12:40:00,45.4,45.4,29.86,SSE,151,2.0,5.0,100,0.00,,CLR,0.00,VWS V14.01,2013-03-24 16:40:00,
2013-03-24 12:45:00,45.0,45.0,29.86,SSE,160,3.0,4.0,100,0.00,,CLR,0.00,VWS V14.01,2013-03-24 16:45:00,
2013-03-24 12:50:00,44.8,44.8,29.86,South,170,4.0,5.0,100,0.00,,CLR,0.00,VWS V14.01,2013-03-24 16:50:00,
2013-03-24 12:55:00,44.7,44.7,29.85,SSW,211,6.0,6.0,100,0.00,,CLR,0.00,VWS V14.01,2013-03-24 16:55:00,
2013-03-24 13:00:00,44.6,44.6,29.85,South,191,6.0,6.0,100,0.00,,CLR,0.00,VWS V14.01,2013-03-24 17:00:00,
2013-03-24 13:05:00,44.5,44.5,29.84,South,169,4.0,5.0,100,0.00,,CLR,0.00,VWS V14.01,2013-03-24 17:05:00,
2013-03-24 13:10:00,44.2,44.2,29.83,South,171,4.0,5.0,100,0.00,,CLR,0.00,VWS V14.01,2013-03-24 17:10:00,
2013-03-24 13:15:00,44.1,44.1,29.83,South,170,4.0,4.0,100,0.00,,CLR,0.00,VWS V14.01,2013-03-24 17:15:00,
2013-03-24 13:20:00,44.0,44.0,29.82,SSE,163,6.0,6.0,100,0.00,,CLR,0.00,VWS V14.01,2013-03-24 17:20:00,
2013-03-24 13:25:00,43.8,43.8,29.82,South,188,6.0,6.0,100,0.00,,CLR,0.00,VWS V14.01,2013-03-24 17:25:00,
2013-03-24 13:30:00,43.7,43.7,29.81,South,190,3.0,6.0,100,0.00,,CLR,0.00,VWS V14.01,2013-03-24 17:30:00,
2013-03-24 13:35:00,43.6,43.6,29.81,South,183,4.0,5.0,100,0.00,,CLR,0.00,VWS V14.01,2013-03-24 17:35:00,
2013-03-24 13:40:00,43.7,43.7,29.81,SSE,160,5.0,5.0,100,0.00,,CLR,0.00,VWS V14.01,2013-03-24 17:40:00,
2013-03-24 13:45:00,43.6,43.6,29.81,South,186,4.0,6.0,100,0.00,,CLR,0.00,VWS V14.01,2013-03-24 17:45:00,
2013-03-24 13:50:00,43.6,43.6,29.80,SSW,192,5.0,6.0,100,0.00,,CLR,0.00,VWS V14.01,2013-03-24 17:50:00,
2013-03-24 13:55:00,43.6,43.6,29.80,South,190,4.0,7.0,100,0.00,,CLR,0.00,VWS V14.01,2013-03-24 17:55:00,
2013-03-24 14:00:00,43.6,43.6,29.79,SSW,192,7.0,7.0,100,0.00,,CLR,0.00,VWS V14.01,2013-03-24 18:00:00,
2013-03-24 14:05:00,43.4,43.4,29.79,SSE,165,5.0,5.0,100,0.00,,CLR,0.00,VWS V14.01,2013-03-24 18:05:00,
2013-03-24 14:10:00,43.1,43.1,29.79,South,174,3.0,4.0,100,0.00,,CLR,0.00,VWS V14.01,2013-03-24 18:10:00,
2013-03-24 14:15:00,42.8,42.8,29.78,SE,146,4.0,4.0,100,0.00,,CLR,0.00,VWS V14.01,2013-03-24 18:15:00,
2013-03-24 14:20:00,42.8,42.8,29.77,SE,146,5.0,6.0,100,0.00,,CLR,0.00,VWS V14.01,2013-03-24 18:20:00,
2013-03-24 14:25:00,42.9,42.9,29.77,South,171,3.0,5.0,100,0.00,,CLR,0.00,VWS V14.01,2013-03-24 18:25:00,
2013-03-24 14:30:00,43.0,43.0,29.77,South,181,5.0,6.0,100,0.00,,CLR,0.00,VWS V14.01,2013-03-24 18:30:00,
2013-03-24 14:35:00,43.0,43.0,29.76,South,188,5.0,7.0,100,0.00,,CLR,0.00,VWS V14.01,2013-03-24 18:35:00,
2013-03-24 14:40:00,42.9,42.9,29.76,South,179,4.0,4.0,100,0.00,,CLR,0.00,VWS V14.01,2013-03-24 18:40:00,
2013-03-24 14:45:00,42.7,42.7,29.75,SSE,162,3.0,4.0,100,0.00,,CLR,0.00,VWS V14.01,2013-03-24 18:45:00,
2013-03-24 14:50:00,42.6,42.6,29.75,South,184,2.0,3.0,100,0.00,,CLR,0.00,VWS V14.01,2013-03-24 18:50:00,
2013-03-24 14:55:00,42.5,42.5,29.75,South,184,3.0,4.0,100,0.00,,CLR,0.00,VWS V14.01,2013-03-24 18:55:00,
2013-03-24 15:00:00,42.3,42.3,29.75,SE,130,5.0,5.0,100,0.00,,CLR,0.00,VWS V14.01,2013-03-24 19:00:00,
2013-03-24 15:05:00,42.3,42.3,29.74,SSE,164,3.0,3.0,100,0.00,,CLR,0.00,VWS V14.01,2013-03-24 19:05:00,
2013-03-24 15:10:00,42.2,42.2,29.75,SSW,201,2.0,6.0,100,0.00,,CLR,0.00,VWS V14.01,2013-03-24 19:10:00,
2013-03-24 15:15:00,42.2,42.2,29.75,SSW,204,2.0,3.0,100,0.00,,CLR,0.00,VWS V14.01,2013-03-24 19:15:00,
2013-03-24 15:20:00,42.2,42.2,29.74,South,183,3.0,3.0,100,0.00,,CLR,0.00,VWS V14.01,2013-03-24 19:20:00,
2013-03-24 15:25:00,42.0,42.0,29.74,South,172,2.0,3.0,100,0.00,,CLR,0.00,VWS V14.01,2013-03-24 19:25:00,
2013-03-24 15:30:00,41.8,41.8,29.74,South,169,1.0,3.0,100,0.00,,CLR,0.00,VWS V14.01,2013-03-24 19:30:00,
2013-03-24 15:35:00,41.6,41.6,29.74,SSE,167,3.0,3.0,100,0.00,,CLR,0.00,VWS V14.01,2013-03-24 19:35:00,
2013-03-24 15:40:00,41.5,41.5,29.73,South,181,3.0,3.0,100,0.00,,CLR,0.00,VWS V14.01,2013-03-24 19:40:00,
2013-03-24 15:45:00,41.5,41.5,29.73,SE,139,3.0,3.0,100,0.00,,CLR,0.00,VWS V14.01,2013-03-24 19:45:00,
2013-03-24 15:50:00,41.4,41.4,29.73,SSE,166,4.0,6.0,100,0.00,,CLR,0.00,VWS V14.01,2013-03-24 19:50:00,
2013-03-24 15:55:00,41.3,41.3,29.72,SE,136,6.0,6.0,100,0.00,,CLR,0.00,VWS V14.01,2013-03-24 19:55:00,
2013-03-24 16:00:00,41.2,41.2,29.72,South,180,4.0,4.0,100,0.00,,CLR,0.00,VWS V14.01,2013-03-24 20:00:00,
2013-03-24 16:05:00,41.1,41.1,29.71,SE,144,2.0,3.0,100,0.00,,CLR,0.00,VWS V14.01,2013-03-24 20:05:00,
2013-03-24 16:10:00,40.9,40.9,29.71,SE,139,6.0,6.0,100,0.00,,CLR,0.00,VWS V14.01,2013-03-24 20:10:00,
2013-03-24 16:15:00,40.7,40.7,29.70,SE,131,7.0,7.0,100,0.00,,CLR,0.00,VWS V14.01,2013-03-24 20:15:00,
2013-03-24 16:20:00,40.6,40.6,29.71,ESE,121,7.0,7.0,100,0.00,,CLR,0.00,VWS V14.01,2013-03-24 20:20:00,
2013-03-24 16:25:00,40.6,40.6,29.70,ESE,120,8.0,8.0,100,0.00,,SCT120,0.00,VWS V14.01,2013-03-24 20:25:00,
2013-03-24 16:30:00,40.5,40.5,29.71,ESE,118,7.0,9.0,100,0.00,,SCT120,0.00,VWS V14.01,2013-03-24 20:30:00,
2013-03-24 16:35:00,40.3,40.3,29.70,SE,137,7.0,7.0,100,0.00,,SCT120,0.00,VWS V14.01,2013-03-24 20:35:00,
2013-03-24 16:40:00,40.1,40.1,29.70,ESE,115,7.0,7.0,100,0.00,,SCT120,0.00,VWS V14.01,2013-03-24 20:40:00,
2013-03-24 16:45:00,40.1,40.1,29.70,SE,130,4.0,5.0,100,0.00,,SCT120,0.00,VWS V14.01,2013-03-24 20:45:00,
2013-03-24 16:50:00,40.1,40.1,29.69,ESE,107,7.0,9.0,100,0.00,,SCT120,0.00,VWS V14.01,2013-03-24 20:50:00,
2013-03-24 16:55:00,40.0,40.0,29.68,East,98,8.0,8.0,100,0.00,,SCT120,0.00,VWS V14.01,2013-03-24 20:55:00,
2013-03-24 17:00:00,40.0,40.0,29.68,East,88,8.0,10.0,100,0.00,,SCT120,0.00,VWS V14.01,2013-03-24 21:00:00,
2013-03-24 17:05:00,39.9,39.9,29.69,East,97,7.0,8.0,100,0.00,,SCT120,0.00,VWS V14.01,2013-03-24 21:05:00,
2013-03-24 17:10:00,39.8,39.8,29.69,East,89,6.0,6.0,100,0.00,,SCT120,0.00,VWS V14.01,2013-03-24 21:10:00,
2013-03-24 17:15:00,39.8,39.8,29.69,East,96,3.0,5.0,100,0.00,,SCT120,0.00,VWS V14.01,2013-03-24 21:15:00,
2013-03-24 17:20:00,39.8,39.8,29.69,East,93,5.0,7.0,100,0.00,,SCT120,0.00,VWS V14.01,2013-03-24 21:20:00,
2013-03-24 17:25:00,39.8,39.8,29.68,ESE,107,4.0,7.0,100,0.00,,SCT120,0.00,VWS V14.01,2013-03-24 21:25:00,
2013-03-24 17:30:00,39.7,39.7,29.68,East,91,6.0,7.0,100,0.00,,SCT120,0.00,VWS V14.01,2013-03-24 21:30:00,
2013-03-24 17:35:00,39.7,39.7,29.69,ESE,113,4.0,8.0,100,0.00,,SCT120,0.00,VWS V14.01,2013-03-24 21:35:00,
2013-03-24 17:40:00,39.6,39.6,29.68,East,84,7.0,8.0,100,0.00,,SCT120,0.00,VWS V14.01,2013-03-24 21:40:00,
2013-03-24 17:45:00,39.5,39.5,29.69,East,84,9.0,12.0,100,0.00,,BKN080,0.00,VWS V14.01,2013-03-24 21:45:00,
2013-03-24 17:50:00,39.3,39.3,29.69,East,101,6.0,9.0,100,0.00,,BKN080,0.00,VWS V14.01,2013-03-24 21:50:00,
2013-03-24 17:55:00,39.2,39.2,29.70,East,82,7.0,8.0,100,0.00,,BKN080,0.00,VWS V14.01,2013-03-24 21:55:00,
2013-03-24 18:00:00,39.1,39.1,29.70,East,91,3.0,5.0,100,0.00,,BKN080,0.00,VWS V14.01,2013-03-24 22:00:00,
2013-03-24 18:05:00,39.1,39.1,29.70,East,85,5.0,6.0,100,0.00,,BKN080,0.00,VWS V14.01,2013-03-24 22:05:00,
2013-03-24 18:10:00,39.0,39.0,29.71,East,94,8.0,8.0,100,0.00,,BKN080,0.00,VWS V14.01,2013-03-24 22:10:00,
2013-03-24 18:15:00,39.0,39.0,29.71,East,84,8.0,8.0,100,0.00,,BKN080,0.00,VWS V14.01,2013-03-24 22:15:00,
2013-03-24 18:20:00,38.9,38.9,29.72,East,92,6.0,6.0,100,0.00,,BKN080,0.00,VWS V14.01,2013-03-24 22:20:00,
2013-03-24 18:25:00,38.9,38.9,29.72,ESE,106,7.0,7.0,100,0.00,,BKN080,0.00,VWS V14.01,2013-03-24 22:25:00,
2013-03-24 18:30:00,38.8,38.8,29.72,ESE,106,2.0,5.0,100,0.00,,BKN080,0.00,VWS V14.01,2013-03-24 22:30:00,
2013-03-24 18:35:00,38.8,38.8,29.72,East,87,5.0,6.0,100,0.00,,BKN080,0.00,VWS V14.01,2013-03-24 22:35:00,
2013-03-24 18:40:00,38.7,38.7,29.73,ESE,111,2.0,4.0,100,0.00,,BKN080,0.00,VWS V14.01,2013-03-24 22:40:00,
2013-03-24 18:45:00,38.7,38.7,29.74,SE,131,3.0,3.0,100,0.00,,BKN080,0.00,VWS V14.01,2013-03-24 22:45:00,
2013-03-24 18:50:00,38.7,38.7,29.74,ESE,105,5.0,5.0,100,0.00,,BKN080,0.00,VWS V14.01,2013-03-24 22:50:00,
2013-03-24 18:55:00,38.7,38.7,29.74,ESE,113,4.0,7.0,100,0.00,,OVC080,0.00,VWS V14.01,2013-03-24 22:55:00,
2013-03-24 19:00:00,38.7,38.7,29.74,ESE,113,4.0,5.0,100,0.00,,OVC080,0.00,VWS V14.01,2013-03-24 23:00:00,
2013-03-24 19:05:00,38.6,38.6,29.75,ESE,110,4.0,5.0,100,0.00,,OVC080,0.00,VWS V14.01,2013-03-24 23:05:00,
2013-03-24 19:10:00,38.6,38.6,29.74,ESE,120,7.0,8.0,100,0.00,,OVC080,0.00,VWS V14.01,2013-03-24 23:10:00,
2013-03-24 19:15:00,38.6,38.6,29.74,ESE,118,3.0,4.0,100,0.00,,OVC080,0.00,VWS V14.01,2013-03-24 23:15:00,
2013-03-24 19:20:00,38.6,38.6,29.74,SE,126,3.0,5.0,100,0.00,,OVC080,0.00,VWS V14.01,2013-03-24 23:20:00,
2013-03-24 19:25:00,38.5,38.5,29.74,ESE,122,7.0,7.0,100,0.00,,OVC080,0.00,VWS V14.01,2013-03-24 23:25:00,
2013-03-24 19:30:00,38.5,38.5,29.74,ESE,108,3.0,6.0,100,0.00,,OVC080,0.00,VWS V14.01,2013-03-24 23:30:00,
2013-03-24 19:35:00,38.5,38.5,29.74,ESE,104,5.0,7.0,100,0.00,,OVC080,0.00,VWS V14.01,2013-03-24 23:35:00,
2013-03-24 19:40:00,38.4,38.4,29.74,ESE,115,4.0,7.0,100,0.00,,OVC080,0.00,VWS V14.01,2013-03-24 23:40:00,
2013-03-24 19:45:00,38.4,38.4,29.74,ESE,105,3.0,5.0,100,0.00,,OVC080,0.00,VWS V14.01,2013-03-24 23:45:00,
2013-03-24 19:50:00,38.4,38.4,29.74,ESE,103,5.0,7.0,100,0.00,,OVC080,0.00,VWS V14.01,2013-03-24 23:50:00,
2013-03-24 19:55:00,38.4,38.4,29.74,East,100,6.0,8.0,100,0.00,,OVC070,0.00,VWS V14.01,2013-03-24 23:55:00,
2013-03-24 20:00:00,38.4,38.4,29.74,ESE,113,8.0,8.0,100,0.00,,OVC070,0.00,VWS V14.01,2013-03-25 00:00:00,
2013-03-24 20:05:00,38.4,38.4,29.74,ESE,119,7.0,7.0,100,0.00,,OVC060,0.00,VWS V14.01,2013-03-25 00:05:00,
2013-03-24 20:10:00,38.5,38.5,29.74,SE,139,4.0,5.0,100,0.00,,OVC060,0.00,VWS V14.01,2013-03-25 00:10:00,
2013-03-24 20:15:00,38.5,38.5,29.74,SE,130,2.0,3.0,100,0.00,,OVC060,0.00,VWS V14.01,2013-03-25 00:15:00,
2013-03-24 20:20:00,38.5,38.5,29.74,ESE,123,2.0,2.0,100,0.00,,OVC060,0.00,VWS V14.01,2013-03-25 00:20:00,
2013-03-24 20:25:00,38.6,38.6,29.74,SSE,159,1.0,2.0,100,0.00,,OVC060,0.00,VWS V14.01,2013-03-25 00:25:00,
2013-03-24 20:30:00,38.5,38.5,29.74,ESE,111,2.0,3.0,100,0.00,,OVC060,0.00,VWS V14.01,2013-03-25 00:30:00,
2013-03-24 20:35:00,38.5,38.5,29.74,ESE,114,2.0,3.0,100,0.00,,OVC065,0.00,VWS V14.01,2013-03-25 00:35:00,
2013-03-24 20:40:00,38.5,38.5,29.74,SE,134,4.0,4.0,100,0.00,,OVC065,0.00,VWS V14.01,2013-03-25 00:40:00,
2013-03-24 20:45:00,38.5,38.5,29.74,ESE,113,3.0,3.0,100,0.00,,OVC070,0.00,VWS V14.01,2013-03-25 00:45:00,
2013-03-24 20:50:00,38.5,38.5,29.74,ESE,119,3.0,4.0,100,0.00,,OVC070,0.00,VWS V14.01,2013-03-25 00:50:00,
2013-03-24 20:55:00,38.4,38.4,29.74,ESE,118,3.0,3.0,100,0.00,,OVC070,0.00,VWS V14.01,2013-03-25 00:55:00,
2013-03-24 21:00:00,38.4,38.4,29.74,ESE,116,2.0,3.0,100,0.00,,OVC070,0.00,VWS V14.01,2013-03-25 01:00:00,
2013-03-24 21:05:00,38.5,38.5,29.73,ESE,109,4.0,4.0,100,0.00,,OVC050,0.00,VWS V14.01,2013-03-25 01:05:00,
2013-03-24 21:10:00,38.4,38.4,29.73,ESE,115,4.0,5.0,100,0.00,,OVC050,0.00,VWS V14.01,2013-03-25 01:10:00,
2013-03-24 21:15:00,38.4,38.4,29.72,ESE,109,4.0,4.0,100,0.00,,OVC050,0.00,VWS V14.01,2013-03-25 01:15:00,
2013-03-24 21:20:00,38.4,38.4,29.72,East,95,3.0,5.0,100,0.00,,OVC050,0.00,VWS V14.01,2013-03-25 01:20:00,
2013-03-24 21:25:00,38.3,38.3,29.72,East,80,6.0,6.0,100,0.00,,OVC050,0.00,VWS V14.01,2013-03-25 01:25:00,
2013-03-24 21:30:00,38.4,38.4,29.71,East,89,6.0,7.0,100,0.00,,OVC050,0.00,VWS V14.01,2013-03-25 01:30:00,
2013-03-24 21:35:00,38.4,38.4,29.71,ENE,64,7.0,7.0,100,0.00,,OVC050,0.00,VWS V14.01,2013-03-25 01:35:00,
2013-03-24 21:40:00,38.5,38.5,29.71,ENE,77,8.0,8.0,100,0.00,,OVC050,0.00,VWS V14.01,2013-03-25 01:40:00,
2013-03-24 21:45:00,38.5,38.5,29.71,ENE,59,7.0,8.0,100,0.00,,OVC050,0.00,VWS V14.01,2013-03-25 01:45:00,
2013-03-24 21:50:00,38.6,38.6,29.71,ENE,60,7.0,8.0,100,0.00,,OVC050,0.00,VWS V14.01,2013-03-25 01:50:00,
2013-03-24 21:55:00,38.6,38.6,29.70,ENE,58,8.0,10.0,100,0.00,,OVC044,0.00,VWS V14.01,2013-03-25 01:55:00,
2013-03-24 22:00:00,38.6,38.6,29.70,ENE,70,9.0,9.0,100,0.00,,OVC044,0.00,VWS V14.01,2013-03-25 02:00:00,
2013-03-24 22:05:00,38.6,38.6,29.71,NE,51,6.0,8.0,100,0.00,,OVC044,0.00,VWS V14.01,2013-03-25 02:05:00,
2013-03-24 22:10:00,38.6,38.6,29.70,ENE,63,8.0,10.0,100,0.00,,OVC044,0.00,VWS V14.01,2013-03-25 02:10:00,
2013-03-24 22:15:00,38.6,38.6,29.70,ENE,61,7.0,9.0,100,0.00,,OVC044,0.00,VWS V14.01,2013-03-25 02:15:00,
2013-03-24 22:20:00,38.6,38.6,29.70,ENE,72,5.0,7.0,100,0.00,,OVC044,0.00,VWS V14.01,2013-03-25 02:20:00,
2013-03-24 22:25:00,38.6,38.6,29.69,ENE,69,8.0,9.0,100,0.00,,OVC050,0.00,VWS V14.01,2013-03-25 02:25:00,
2013-03-24 22:30:00,38.6,38.6,29.69,ENE,69,9.0,9.0,100,0.00,,OVC050,0.00,VWS V14.01,2013-03-25 02:30:00,
2013-03-24 22:35:00,38.6,38.6,29.69,ENE,65,9.0,9.0,100,0.00,,OVC050,0.00,VWS V14.01,2013-03-25 02:35:00,
2013-03-24 22:40:00,38.7,38.7,29.68,ENE,71,11.0,12.0,100,0.00,,OVC050,0.00,VWS V14.01,2013-03-25 02:40:00,
2013-03-24 22:45:00,38.7,38.7,29.68,ENE,70,10.0,10.0,100,0.00,,OVC050,0.00,VWS V14.01,2013-03-25 02:45:00,
2013-03-24 22:50:00,38.8,38.8,29.67,ENE,66,13.0,13.0,100,0.00,,OVC050,0.00,VWS V14.01,2013-03-25 02:50:00,
2013-03-24 22:55:00,38.8,38.8,29.67,ENE,74,12.0,16.0,100,0.00,,OVC050,0.00,VWS V14.01,2013-03-25 02:55:00,
2013-03-24 23:00:00,38.9,38.9,29.66,ENE,77,15.0,16.0,100,0.00,,OVC050,0.00,VWS V14.01,2013-03-25 03:00:00,
2013-03-24 23:05:00,38.8,38.8,29.65,ESE,107,14.0,16.0,100,0.00,,OVC048,0.00,VWS V14.01,2013-03-25 03:05:00,
2013-03-24 23:10:00,38.8,38.8,29.64,East,84,17.0,19.0,100,0.00,,OVC048,0.00,VWS V14.01,2013-03-25 03:10:00,
2013-03-24 23:15:00,38.9,38.9,29.64,East,90,15.0,15.0,100,0.00,,OVC048,0.00,VWS V14.01,2013-03-25 03:15:00,
2013-03-24 23:20:00,38.9,38.9,29.63,ENE,72,19.0,23.0,100,0.00,,OVC048,0.00,VWS V14.01,2013-03-25 03:20:00,
2013-03-24 23:25:00,38.8,38.8,29.63,ESE,108,15.0,16.0,100,0.00,,OVC041,0.00,VWS V14.01,2013-03-25 03:25:00,
2013-03-24 23:30:00,38.2,38.2,29.66,ESE,121,17.0,17.0,100,0.00,,OVC041,0.00,VWS V14.01,2013-03-25 03:30:00,
2013-03-24 23:35:00,37.7,37.7,29.67,SE,125,15.0,17.0,100,0.00,,OVC041,0.00,VWS V14.01,2013-03-25 03:35:00,
2013-03-24 23:40:00,37.5,37.5,29.67,ESE,120,19.0,19.0,100,0.00,,OVC041,0.00,VWS V14.01,2013-03-25 03:40:00,
2013-03-24 23:45:00,37.5,37.5,29.66,ESE,105,10.0,15.0,100,0.00,,OVC041,0.00,VWS V14.01,2013-03-25 03:45:00,
2013-03-24 23:50:00,37.6,37.6,29.65,ESE,107,17.0,17.0,100,0.00,,OVC041,0.00,VWS V14.01,2013-03-25 03:50:00,
2013-03-24 23:55:00,37.7,37.7,29.66,ESE,119,13.0,15.0,100,0.00,,OVC041,0.00,VWS V14.01,2013-03-25 03:55:00,